sensor_id;sensor_type;location;lat;lon;timestamp;P1;durP1;ratioP1;P2;durP2;ratioP2
21754;SDS011;11039;50.028;19.938;2023-06-14T00:01:24;6.40;;;5.70;;
21754;SDS011;11039;50.028;19.938;2023-06-14T00:03:51;6.80;;;5.13;;
21754;SDS011;11039;50.028;19.938;2023-06-14T00:06:17;5.65;;;5.07;;
21754;SDS011;11039;50.028;19.938;2023-06-14T00:08:43;8.02;;;5.60;;
21754;SDS011;11039;50.028;19.938;2023-06-14T00:11:09;5.38;;;4.88;;
21754;SDS011;11039;50.028;19.938;2023-06-14T00:13:35;5.13;;;4.63;;
21754;SDS011;11039;50.028;19.938;2023-06-14T00:16:01;5.80;;;5.13;;
21754;SDS011;11039;50.028;19.938;2023-06-14T00:18:28;5.85;;;5.07;;
21754;SDS011;11039;50.028;19.938;2023-06-14T00:23:15;5.63;;;4.90;;
21754;SDS011;11039;50.028;19.938;2023-06-14T00:25:41;5.95;;;5.35;;
21754;SDS011;11039;50.028;19.938;2023-06-14T00:28:07;6.95;;;5.40;;
21754;SDS011;11039;50.028;19.938;2023-06-14T00:30:33;5.63;;;5.03;;
21754;SDS011;11039;50.028;19.938;2023-06-14T00:32:59;6.18;;;5.00;;
21754;SDS011;11039;50.028;19.938;2023-06-14T00:35:25;6.15;;;5.10;;
21754;SDS011;11039;50.028;19.938;2023-06-14T00:37:51;6.10;;;5.50;;
21754;SDS011;11039;50.028;19.938;2023-06-14T00:40:19;5.60;;;4.50;;
21754;SDS011;11039;50.028;19.938;2023-06-14T00:42:46;6.95;;;5.50;;
21754;SDS011;11039;50.028;19.938;2023-06-14T00:45:12;5.60;;;5.00;;
21754;SDS011;11039;50.028;19.938;2023-06-14T00:47:38;5.65;;;4.88;;
21754;SDS011;11039;50.028;19.938;2023-06-14T00:50:06;5.25;;;4.50;;
21754;SDS011;11039;50.028;19.938;2023-06-14T00:52:32;5.05;;;4.55;;
21754;SDS011;11039;50.028;19.938;2023-06-14T00:54:59;5.53;;;4.85;;
21754;SDS011;11039;50.028;19.938;2023-06-14T00:57:25;5.25;;;4.55;;
21754;SDS011;11039;50.028;19.938;2023-06-14T00:59:52;5.22;;;4.72;;
21754;SDS011;11039;50.028;19.938;2023-06-14T01:04:38;5.82;;;4.68;;
21754;SDS011;11039;50.028;19.938;2023-06-14T01:07:39;4.90;;;4.38;;
21754;SDS011;11039;50.028;19.938;2023-06-14T01:12:35;5.30;;;4.57;;
21754;SDS011;11039;50.028;19.938;2023-06-14T01:15:02;5.55;;;4.95;;
21754;SDS011;11039;50.028;19.938;2023-06-14T01:17:29;5.15;;;4.63;;
21754;SDS011;11039;50.028;19.938;2023-06-14T01:19:57;5.10;;;3.92;;
21754;SDS011;11039;50.028;19.938;2023-06-14T01:22:27;5.75;;;4.55;;
21754;SDS011;11039;50.028;19.938;2023-06-14T01:24:53;4.85;;;4.35;;
21754;SDS011;11039;50.028;19.938;2023-06-14T01:27:23;4.80;;;4.15;;
21754;SDS011;11039;50.028;19.938;2023-06-14T01:29:53;5.22;;;4.57;;
21754;SDS011;11039;50.028;19.938;2023-06-14T01:32:21;4.60;;;4.10;;
21754;SDS011;11039;50.028;19.938;2023-06-14T01:34:47;5.70;;;4.65;;
21754;SDS011;11039;50.028;19.938;2023-06-14T01:37:13;4.50;;;4.05;;
21754;SDS011;11039;50.028;19.938;2023-06-14T01:39:40;4.32;;;3.92;;
21754;SDS011;11039;50.028;19.938;2023-06-14T01:42:07;5.28;;;4.30;;
21754;SDS011;11039;50.028;19.938;2023-06-14T01:44:33;5.45;;;4.20;;
21754;SDS011;11039;50.028;19.938;2023-06-14T01:46:59;4.63;;;4.13;;
21754;SDS011;11039;50.028;19.938;2023-06-14T01:49:26;5.13;;;4.20;;
21754;SDS011;11039;50.028;19.938;2023-06-14T01:51:52;4.50;;;3.90;;
21754;SDS011;11039;50.028;19.938;2023-06-14T01:54:18;4.65;;;3.90;;
21754;SDS011;11039;50.028;19.938;2023-06-14T01:56:44;4.38;;;3.80;;
21754;SDS011;11039;50.028;19.938;2023-06-14T01:59:10;5.30;;;4.15;;
21754;SDS011;11039;50.028;19.938;2023-06-14T02:03:55;4.90;;;4.25;;
21754;SDS011;11039;50.028;19.938;2023-06-14T02:06:21;4.18;;;3.75;;
21754;SDS011;11039;50.028;19.938;2023-06-14T02:08:47;4.88;;;4.25;;
21754;SDS011;11039;50.028;19.938;2023-06-14T02:11:13;5.10;;;4.45;;
21754;SDS011;11039;50.028;19.938;2023-06-14T02:13:40;4.55;;;3.88;;
21754;SDS011;11039;50.028;19.938;2023-06-14T02:16:06;4.55;;;3.88;;
21754;SDS011;11039;50.028;19.938;2023-06-14T02:18:32;4.63;;;3.67;;
21754;SDS011;11039;50.028;19.938;2023-06-14T02:20:58;4.32;;;3.85;;
21754;SDS011;11039;50.028;19.938;2023-06-14T02:23:24;5.00;;;3.78;;
21754;SDS011;11039;50.028;19.938;2023-06-14T02:25:50;4.85;;;4.32;;
21754;SDS011;11039;50.028;19.938;2023-06-14T02:28:16;4.10;;;3.70;;
21754;SDS011;11039;50.028;19.938;2023-06-14T02:30:42;4.68;;;4.05;;
21754;SDS011;11039;50.028;19.938;2023-06-14T02:33:08;4.65;;;4.20;;
21754;SDS011;11039;50.028;19.938;2023-06-14T02:35:37;4.68;;;4.00;;
21754;SDS011;11039;50.028;19.938;2023-06-14T02:38:03;4.20;;;3.72;;
21754;SDS011;11039;50.028;19.938;2023-06-14T02:40:30;4.68;;;3.67;;
21754;SDS011;11039;50.028;19.938;2023-06-14T02:42:56;4.22;;;3.83;;
21754;SDS011;11039;50.028;19.938;2023-06-14T02:45:22;4.65;;;3.72;;
21754;SDS011;11039;50.028;19.938;2023-06-14T02:47:48;3.75;;;3.33;;
21754;SDS011;11039;50.028;19.938;2023-06-14T02:50:14;4.25;;;3.85;;
21754;SDS011;11039;50.028;19.938;2023-06-14T02:52:41;5.22;;;3.97;;
21754;SDS011;11039;50.028;19.938;2023-06-14T02:55:09;4.40;;;4.00;;
21754;SDS011;11039;50.028;19.938;2023-06-14T02:57:35;5.70;;;3.97;;
21754;SDS011;11039;50.028;19.938;2023-06-14T03:00:02;4.40;;;3.55;;
21754;SDS011;11039;50.028;19.938;2023-06-14T03:02:28;5.55;;;3.92;;
21754;SDS011;11039;50.028;19.938;2023-06-14T03:04:54;4.57;;;3.60;;
21754;SDS011;11039;50.028;19.938;2023-06-14T03:07:20;4.82;;;3.60;;
21754;SDS011;11039;50.028;19.938;2023-06-14T03:09:48;4.28;;;3.53;;
21754;SDS011;11039;50.028;19.938;2023-06-14T03:12:14;4.10;;;3.67;;
21754;SDS011;11039;50.028;19.938;2023-06-14T03:16:58;4.68;;;3.72;;
21754;SDS011;11039;50.028;19.938;2023-06-14T03:19:25;4.15;;;3.70;;
21754;SDS011;11039;50.028;19.938;2023-06-14T03:21:51;3.70;;;3.30;;
21754;SDS011;11039;50.028;19.938;2023-06-14T03:24:18;4.85;;;4.00;;
21754;SDS011;11039;50.028;19.938;2023-06-14T03:26:45;3.75;;;3.35;;
21754;SDS011;11039;50.028;19.938;2023-06-14T03:29:11;5.30;;;3.95;;
21754;SDS011;11039;50.028;19.938;2023-06-14T03:31:41;4.40;;;3.60;;
21754;SDS011;11039;50.028;19.938;2023-06-14T03:34:21;4.20;;;3.53;;
21754;SDS011;11039;50.028;19.938;2023-06-14T03:36:47;4.32;;;3.85;;
21754;SDS011;11039;50.028;19.938;2023-06-14T03:39:14;5.38;;;3.97;;
21754;SDS011;11039;50.028;19.938;2023-06-14T03:41:40;5.00;;;3.63;;
21754;SDS011;11039;50.028;19.938;2023-06-14T03:44:06;4.50;;;3.80;;
21754;SDS011;11039;50.028;19.938;2023-06-14T03:46:32;4.20;;;3.80;;
21754;SDS011;11039;50.028;19.938;2023-06-14T03:48:58;3.92;;;3.50;;
21754;SDS011;11039;50.028;19.938;2023-06-14T03:51:25;4.45;;;4.05;;
21754;SDS011;11039;50.028;19.938;2023-06-14T03:53:51;4.38;;;3.97;;
21754;SDS011;11039;50.028;19.938;2023-06-14T03:56:17;4.60;;;3.70;;
21754;SDS011;11039;50.028;19.938;2023-06-14T03:58:43;4.82;;;3.72;;
21754;SDS011;11039;50.028;19.938;2023-06-14T04:01:09;4.30;;;3.90;;
21754;SDS011;11039;50.028;19.938;2023-06-14T04:03:37;3.63;;;3.30;;
21754;SDS011;11039;50.028;19.938;2023-06-14T04:06:04;4.75;;;3.85;;
21754;SDS011;11039;50.028;19.938;2023-06-14T04:08:30;5.07;;;3.55;;
21754;SDS011;11039;50.028;19.938;2023-06-14T04:10:56;3.58;;;3.28;;
21754;SDS011;11039;50.028;19.938;2023-06-14T04:15:41;4.15;;;3.75;;
21754;SDS011;11039;50.028;19.938;2023-06-14T04:18:08;4.05;;;3.63;;
21754;SDS011;11039;50.028;19.938;2023-06-14T04:20:35;4.43;;;3.60;;
21754;SDS011;11039;50.028;19.938;2023-06-14T04:23:16;3.65;;;3.30;;
21754;SDS011;11039;50.028;19.938;2023-06-14T04:25:43;3.80;;;3.38;;
21754;SDS011;11039;50.028;19.938;2023-06-14T04:28:14;5.22;;;3.42;;
21754;SDS011;11039;50.028;19.938;2023-06-14T04:30:43;4.97;;;3.60;;
21754;SDS011;11039;50.028;19.938;2023-06-14T04:33:10;5.07;;;4.03;;
21754;SDS011;11039;50.028;19.938;2023-06-14T04:37:54;4.45;;;3.33;;
21754;SDS011;11039;50.028;19.938;2023-06-14T04:40:20;4.88;;;3.53;;
21754;SDS011;11039;50.028;19.938;2023-06-14T04:42:46;4.45;;;4.05;;
21754;SDS011;11039;50.028;19.938;2023-06-14T04:45:12;5.47;;;3.58;;
21754;SDS011;11039;50.028;19.938;2023-06-14T04:47:40;4.82;;;3.65;;
21754;SDS011;11039;50.028;19.938;2023-06-14T04:52:26;4.82;;;3.70;;
21754;SDS011;11039;50.028;19.938;2023-06-14T04:54:52;4.90;;;3.53;;
21754;SDS011;11039;50.028;19.938;2023-06-14T04:57:19;4.18;;;3.72;;
21754;SDS011;11039;50.028;19.938;2023-06-14T05:02:04;3.95;;;3.55;;
21754;SDS011;11039;50.028;19.938;2023-06-14T05:04:31;4.95;;;3.80;;
21754;SDS011;11039;50.028;19.938;2023-06-14T05:06:58;4.15;;;3.75;;
21754;SDS011;11039;50.028;19.938;2023-06-14T05:09:24;4.20;;;3.80;;
21754;SDS011;11039;50.028;19.938;2023-06-14T05:11:50;5.22;;;3.85;;
21754;SDS011;11039;50.028;19.938;2023-06-14T05:14:16;4.07;;;3.40;;
21754;SDS011;11039;50.028;19.938;2023-06-14T05:16:43;4.35;;;3.65;;
21754;SDS011;11039;50.028;19.938;2023-06-14T05:19:09;5.07;;;3.70;;
21754;SDS011;11039;50.028;19.938;2023-06-14T05:21:36;4.70;;;3.90;;
21754;SDS011;11039;50.028;19.938;2023-06-14T05:24:02;4.07;;;3.67;;
21754;SDS011;11039;50.028;19.938;2023-06-14T05:26:28;4.00;;;3.42;;
21754;SDS011;11039;50.028;19.938;2023-06-14T05:28:58;4.55;;;4.13;;
21754;SDS011;11039;50.028;19.938;2023-06-14T05:31:26;4.25;;;3.85;;
21754;SDS011;11039;50.028;19.938;2023-06-14T05:33:53;4.75;;;3.90;;
21754;SDS011;11039;50.028;19.938;2023-06-14T05:36:19;4.90;;;4.03;;
21754;SDS011;11039;50.028;19.938;2023-06-14T05:38:46;4.63;;;3.85;;
21754;SDS011;11039;50.028;19.938;2023-06-14T05:41:12;4.40;;;3.95;;
21754;SDS011;11039;50.028;19.938;2023-06-14T05:43:39;4.05;;;3.65;;
21754;SDS011;11039;50.028;19.938;2023-06-14T05:46:05;4.65;;;4.05;;
21754;SDS011;11039;50.028;19.938;2023-06-14T05:48:31;4.15;;;3.75;;
21754;SDS011;11039;50.028;19.938;2023-06-14T05:50:58;5.43;;;4.38;;
21754;SDS011;11039;50.028;19.938;2023-06-14T05:53:25;4.78;;;4.28;;
21754;SDS011;11039;50.028;19.938;2023-06-14T05:55:51;6.15;;;3.97;;
21754;SDS011;11039;50.028;19.938;2023-06-14T05:58:19;4.72;;;3.92;;
21754;SDS011;11039;50.028;19.938;2023-06-14T06:00:45;4.78;;;4.00;;
21754;SDS011;11039;50.028;19.938;2023-06-14T06:03:11;5.57;;;4.40;;
21754;SDS011;11039;50.028;19.938;2023-06-14T06:05:38;5.03;;;4.25;;
21754;SDS011;11039;50.028;19.938;2023-06-14T06:08:04;6.63;;;4.07;;
21754;SDS011;11039;50.028;19.938;2023-06-14T06:10:30;4.57;;;4.18;;
21754;SDS011;11039;50.028;19.938;2023-06-14T06:15:16;5.82;;;4.80;;
21754;SDS011;11039;50.028;19.938;2023-06-14T06:17:43;6.78;;;4.50;;
21754;SDS011;11039;50.028;19.938;2023-06-14T06:20:10;5.70;;;4.13;;
21754;SDS011;11039;50.028;19.938;2023-06-14T06:22:37;5.07;;;4.18;;
21754;SDS011;11039;50.028;19.938;2023-06-14T06:25:03;6.57;;;4.35;;
21754;SDS011;11039;50.028;19.938;2023-06-14T06:27:29;6.28;;;4.47;;
21754;SDS011;11039;50.028;19.938;2023-06-14T06:29:55;5.18;;;4.57;;
21754;SDS011;11039;50.028;19.938;2023-06-14T06:32:21;4.72;;;3.95;;
21754;SDS011;11039;50.028;19.938;2023-06-14T06:34:47;4.93;;;4.43;;
21754;SDS011;11039;50.028;19.938;2023-06-14T06:39:44;6.10;;;4.70;;
21754;SDS011;11039;50.028;19.938;2023-06-14T06:42:12;5.18;;;4.32;;
21754;SDS011;11039;50.028;19.938;2023-06-14T06:44:38;5.30;;;4.50;;
21754;SDS011;11039;50.028;19.938;2023-06-14T06:47:04;5.78;;;4.68;;
21754;SDS011;11039;50.028;19.938;2023-06-14T06:49:30;6.30;;;4.72;;
21754;SDS011;11039;50.028;19.938;2023-06-14T06:52:03;7.20;;;5.00;;
21754;SDS011;11039;50.028;19.938;2023-06-14T06:54:29;6.35;;;4.63;;
21754;SDS011;11039;50.028;19.938;2023-06-14T06:56:55;6.50;;;5.10;;
21754;SDS011;11039;50.028;19.938;2023-06-14T06:59:21;5.57;;;4.53;;
21754;SDS011;11039;50.028;19.938;2023-06-14T07:01:48;5.93;;;4.63;;
21754;SDS011;11039;50.028;19.938;2023-06-14T07:04:14;6.68;;;4.57;;
21754;SDS011;11039;50.028;19.938;2023-06-14T07:06:41;6.95;;;5.60;;
21754;SDS011;11039;50.028;19.938;2023-06-14T07:09:07;5.57;;;4.82;;
21754;SDS011;11039;50.028;19.938;2023-06-14T07:11:37;5.88;;;4.95;;
21754;SDS011;11039;50.028;19.938;2023-06-14T07:14:04;5.90;;;5.07;;
21754;SDS011;11039;50.028;19.938;2023-06-14T07:16:30;6.13;;;5.30;;
21754;SDS011;11039;50.028;19.938;2023-06-14T07:18:56;6.22;;;5.00;;
21754;SDS011;11039;50.028;19.938;2023-06-14T07:21:22;6.18;;;5.25;;
21754;SDS011;11039;50.028;19.938;2023-06-14T07:23:48;7.25;;;5.45;;
21754;SDS011;11039;50.028;19.938;2023-06-14T07:26:14;6.03;;;4.90;;
21754;SDS011;11039;50.028;19.938;2023-06-14T07:28:40;8.13;;;5.32;;
21754;SDS011;11039;50.028;19.938;2023-06-14T07:31:09;6.60;;;5.28;;
21754;SDS011;11039;50.028;19.938;2023-06-14T07:33:36;6.93;;;5.70;;
21754;SDS011;11039;50.028;19.938;2023-06-14T07:36:02;7.20;;;5.72;;
21754;SDS011;11039;50.028;19.938;2023-06-14T07:38:28;5.78;;;5.18;;
21754;SDS011;11039;50.028;19.938;2023-06-14T07:40:54;6.78;;;5.97;;
21754;SDS011;11039;50.028;19.938;2023-06-14T07:43:20;7.75;;;5.32;;
21754;SDS011;11039;50.028;19.938;2023-06-14T07:45:46;6.22;;;5.30;;
21754;SDS011;11039;50.028;19.938;2023-06-14T07:48:12;6.90;;;5.47;;
21754;SDS011;11039;50.028;19.938;2023-06-14T07:52:57;7.07;;;5.55;;
21754;SDS011;11039;50.028;19.938;2023-06-14T07:55:23;7.75;;;6.10;;
21754;SDS011;11039;50.028;19.938;2023-06-14T07:57:50;7.68;;;6.07;;
21754;SDS011;11039;50.028;19.938;2023-06-14T08:00:16;8.70;;;5.30;;
21754;SDS011;11039;50.028;19.938;2023-06-14T08:02:43;13.02;;;5.05;;
21754;SDS011;11039;50.028;19.938;2023-06-14T08:05:12;5.85;;;5.25;;
21754;SDS011;11039;50.028;19.938;2023-06-14T08:07:39;8.10;;;5.95;;
21754;SDS011;11039;50.028;19.938;2023-06-14T08:10:05;7.22;;;5.80;;
21754;SDS011;11039;50.028;19.938;2023-06-14T08:12:32;7.53;;;6.28;;
21754;SDS011;11039;50.028;19.938;2023-06-14T08:14:59;10.32;;;6.03;;
21754;SDS011;11039;50.028;19.938;2023-06-14T08:17:25;6.57;;;5.22;;
21754;SDS011;11039;50.028;19.938;2023-06-14T08:19:51;6.20;;;5.03;;
21754;SDS011;11039;50.028;19.938;2023-06-14T08:22:19;7.18;;;5.20;;
21754;SDS011;11039;50.028;19.938;2023-06-14T08:24:46;7.38;;;5.22;;
21754;SDS011;11039;50.028;19.938;2023-06-14T08:27:13;6.57;;;5.28;;
21754;SDS011;11039;50.028;19.938;2023-06-14T08:29:39;9.52;;;5.35;;
21754;SDS011;11039;50.028;19.938;2023-06-14T08:32:06;7.60;;;5.40;;
21754;SDS011;11039;50.028;19.938;2023-06-14T08:34:32;7.32;;;4.72;;
21754;SDS011;11039;50.028;19.938;2023-06-14T08:36:58;8.63;;;4.60;;
21754;SDS011;11039;50.028;19.938;2023-06-14T08:39:24;5.60;;;4.75;;
21754;SDS011;11039;50.028;19.938;2023-06-14T08:41:51;6.43;;;4.93;;
21754;SDS011;11039;50.028;19.938;2023-06-14T08:44:18;6.53;;;4.32;;
21754;SDS011;11039;50.028;19.938;2023-06-14T08:46:44;4.15;;;3.70;;
21754;SDS011;11039;50.028;19.938;2023-06-14T08:49:11;4.28;;;3.53;;
21754;SDS011;11039;50.028;19.938;2023-06-14T08:51:37;5.03;;;3.75;;
21754;SDS011;11039;50.028;19.938;2023-06-14T08:54:05;4.10;;;3.53;;
21754;SDS011;11039;50.028;19.938;2023-06-14T08:56:32;3.50;;;3.20;;
21754;SDS011;11039;50.028;19.938;2023-06-14T08:59:01;4.55;;;2.90;;
21754;SDS011;11039;50.028;19.938;2023-06-14T09:01:34;3.60;;;3.17;;
21754;SDS011;11039;50.028;19.938;2023-06-14T09:04:01;3.72;;;3.20;;
21754;SDS011;11039;50.028;19.938;2023-06-14T09:06:27;3.90;;;3.50;;
21754;SDS011;11039;50.028;19.938;2023-06-14T09:08:54;3.70;;;3.40;;
21754;SDS011;11039;50.028;19.938;2023-06-14T09:11:24;4.47;;;3.25;;
21754;SDS011;11039;50.028;19.938;2023-06-14T09:13:51;3.80;;;3.50;;
21754;SDS011;11039;50.028;19.938;2023-06-14T09:16:17;4.00;;;3.03;;
21754;SDS011;11039;50.028;19.938;2023-06-14T09:18:44;3.70;;;3.38;;
21754;SDS011;11039;50.028;19.938;2023-06-14T09:21:12;5.30;;;2.83;;
21754;SDS011;11039;50.028;19.938;2023-06-14T09:23:40;3.70;;;3.17;;
21754;SDS011;11039;50.028;19.938;2023-06-14T09:26:09;3.80;;;3.25;;
21754;SDS011;11039;50.028;19.938;2023-06-14T09:30:54;4.60;;;3.50;;
21754;SDS011;11039;50.028;19.938;2023-06-14T09:33:20;4.00;;;3.17;;
21754;SDS011;11039;50.028;19.938;2023-06-14T09:35:50;5.13;;;3.65;;
21754;SDS011;11039;50.028;19.938;2023-06-14T09:38:16;3.58;;;2.85;;
21754;SDS011;11039;50.028;19.938;2023-06-14T09:43:02;4.65;;;3.40;;
21754;SDS011;11039;50.028;19.938;2023-06-14T09:45:28;3.47;;;3.17;;
21754;SDS011;11039;50.028;19.938;2023-06-14T09:47:58;3.72;;;3.00;;
21754;SDS011;11039;50.028;19.938;2023-06-14T09:50:24;4.03;;;3.22;;
21754;SDS011;11039;50.028;19.938;2023-06-14T09:52:51;3.53;;;2.70;;
21754;SDS011;11039;50.028;19.938;2023-06-14T09:55:18;4.70;;;3.00;;
21754;SDS011;11039;50.028;19.938;2023-06-14T09:57:45;4.55;;;3.72;;
21754;SDS011;11039;50.028;19.938;2023-06-14T10:00:12;5.28;;;3.40;;
21754;SDS011;11039;50.028;19.938;2023-06-14T10:02:40;3.78;;;3.20;;
21754;SDS011;11039;50.028;19.938;2023-06-14T10:05:12;4.03;;;3.30;;
21754;SDS011;11039;50.028;19.938;2023-06-14T10:07:47;6.15;;;3.60;;
21754;SDS011;11039;50.028;19.938;2023-06-14T10:10:14;4.53;;;3.78;;
21754;SDS011;11039;50.028;19.938;2023-06-14T10:12:40;4.57;;;3.40;;
21754;SDS011;11039;50.028;19.938;2023-06-14T10:15:09;5.63;;;3.72;;
21754;SDS011;11039;50.028;19.938;2023-06-14T10:22:47;4.35;;;3.92;;
21754;SDS011;11039;50.028;19.938;2023-06-14T10:25:30;4.38;;;3.60;;
21754;SDS011;11039;50.028;19.938;2023-06-14T10:30:29;6.32;;;3.83;;
21754;SDS011;11039;50.028;19.938;2023-06-14T10:33:05;5.70;;;3.80;;
21754;SDS011;11039;50.028;19.938;2023-06-14T10:35:32;4.20;;;3.78;;
21754;SDS011;11039;50.028;19.938;2023-06-14T10:38:07;4.10;;;3.70;;
21754;SDS011;11039;50.028;19.938;2023-06-14T10:40:33;4.10;;;3.70;;
21754;SDS011;11039;50.028;19.938;2023-06-14T10:43:00;5.60;;;4.28;;
21754;SDS011;11039;50.028;19.938;2023-06-14T10:45:26;5.13;;;4.25;;
21754;SDS011;11039;50.028;19.938;2023-06-14T10:47:52;4.53;;;3.83;;
21754;SDS011;11039;50.028;19.938;2023-06-14T10:50:22;4.70;;;4.07;;
21754;SDS011;11039;50.028;19.938;2023-06-14T10:52:53;5.22;;;4.32;;
21754;SDS011;11039;50.028;19.938;2023-06-14T10:55:19;6.32;;;4.43;;
21754;SDS011;11039;50.028;19.938;2023-06-14T11:00:06;5.30;;;4.30;;
21754;SDS011;11039;50.028;19.938;2023-06-14T11:05:08;5.18;;;4.30;;
21754;SDS011;11039;50.028;19.938;2023-06-14T11:10:13;6.25;;;4.50;;
21754;SDS011;11039;50.028;19.938;2023-06-14T11:12:42;5.40;;;4.90;;
21754;SDS011;11039;50.028;19.938;2023-06-14T11:15:11;6.20;;;4.90;;
21754;SDS011;11039;50.028;19.938;2023-06-14T11:17:38;6.57;;;4.35;;
21754;SDS011;11039;50.028;19.938;2023-06-14T11:20:07;5.00;;;4.50;;
21754;SDS011;11039;50.028;19.938;2023-06-14T11:22:41;5.18;;;4.15;;
21754;SDS011;11039;50.028;19.938;2023-06-14T11:25:13;5.32;;;4.82;;
21754;SDS011;11039;50.028;19.938;2023-06-14T11:27:42;5.30;;;4.63;;
21754;SDS011;11039;50.028;19.938;2023-06-14T11:30:08;5.28;;;4.68;;
21754;SDS011;11039;50.028;19.938;2023-06-14T11:32:35;5.38;;;4.88;;
21754;SDS011;11039;50.028;19.938;2023-06-14T11:35:02;5.47;;;4.97;;
21754;SDS011;11039;50.028;19.938;2023-06-14T11:37:29;5.47;;;4.80;;
21754;SDS011;11039;50.028;19.938;2023-06-14T11:39:58;6.93;;;5.32;;
21754;SDS011;11039;50.028;19.938;2023-06-14T11:42:27;6.55;;;5.47;;
21754;SDS011;11039;50.028;19.938;2023-06-14T11:44:54;5.97;;;5.40;;
21754;SDS011;11039;50.028;19.938;2023-06-14T11:47:20;6.03;;;5.43;;
21754;SDS011;11039;50.028;19.938;2023-06-14T11:49:47;9.10;;;6.13;;
21754;SDS011;11039;50.028;19.938;2023-06-14T11:52:13;6.05;;;5.20;;
21754;SDS011;11039;50.028;19.938;2023-06-14T11:54:39;5.50;;;5.00;;
21754;SDS011;11039;50.028;19.938;2023-06-14T11:57:08;6.22;;;5.20;;
21754;SDS011;11039;50.028;19.938;2023-06-14T11:59:38;6.63;;;6.03;;
21754;SDS011;11039;50.028;19.938;2023-06-14T12:02:05;8.57;;;5.95;;
21754;SDS011;11039;50.028;19.938;2023-06-14T12:04:31;9.30;;;8.35;;
21754;SDS011;11039;50.028;19.938;2023-06-14T12:07:08;12.88;;;10.73;;
21754;SDS011;11039;50.028;19.938;2023-06-14T12:09:36;12.18;;;10.60;;
21754;SDS011;11039;50.028;19.938;2023-06-14T12:12:02;11.60;;;10.38;;
21754;SDS011;11039;50.028;19.938;2023-06-14T12:14:29;11.48;;;10.30;;
21754;SDS011;11039;50.028;19.938;2023-06-14T12:17:03;10.95;;;9.85;;
21754;SDS011;11039;50.028;19.938;2023-06-14T12:19:30;12.02;;;10.10;;
21754;SDS011;11039;50.028;19.938;2023-06-14T12:21:57;13.60;;;11.80;;
21754;SDS011;11039;50.028;19.938;2023-06-14T12:24:29;12.45;;;11.25;;
21754;SDS011;11039;50.028;19.938;2023-06-14T12:26:57;13.68;;;11.50;;
21754;SDS011;11039;50.028;19.938;2023-06-14T12:29:24;13.68;;;11.10;;
21754;SDS011;11039;50.028;19.938;2023-06-14T12:31:50;13.65;;;10.77;;
21754;SDS011;11039;50.028;19.938;2023-06-14T12:34:19;13.68;;;10.45;;
21754;SDS011;11039;50.028;19.938;2023-06-14T12:36:45;11.93;;;9.20;;
21754;SDS011;11039;50.028;19.938;2023-06-14T12:39:12;9.93;;;8.93;;
21754;SDS011;11039;50.028;19.938;2023-06-14T12:41:38;13.38;;;8.10;;
21754;SDS011;11039;50.028;19.938;2023-06-14T12:44:06;9.90;;;7.43;;
21754;SDS011;11039;50.028;19.938;2023-06-14T12:46:33;8.10;;;6.75;;
21754;SDS011;11039;50.028;19.938;2023-06-14T12:49:00;7.57;;;6.35;;
21754;SDS011;11039;50.028;19.938;2023-06-14T12:51:26;9.05;;;6.30;;
21754;SDS011;11039;50.028;19.938;2023-06-14T12:53:52;6.25;;;5.65;;
21754;SDS011;11039;50.028;19.938;2023-06-14T12:56:18;6.05;;;5.45;;
21754;SDS011;11039;50.028;19.938;2023-06-14T12:58:44;7.15;;;5.53;;
21754;SDS011;11039;50.028;19.938;2023-06-14T13:01:10;6.40;;;5.45;;
21754;SDS011;11039;50.028;19.938;2023-06-14T13:03:36;6.03;;;5.18;;
21754;SDS011;11039;50.028;19.938;2023-06-14T13:06:02;7.43;;;5.55;;
21754;SDS011;11039;50.028;19.938;2023-06-14T13:10:48;5.80;;;5.20;;
21754;SDS011;11039;50.028;19.938;2023-06-14T13:13:14;5.40;;;4.90;;
21754;SDS011;11039;50.028;19.938;2023-06-14T13:15:40;5.72;;;5.18;;
21754;SDS011;11039;50.028;19.938;2023-06-14T13:18:07;5.95;;;5.15;;
21754;SDS011;11039;50.028;19.938;2023-06-14T13:20:33;5.13;;;4.63;;
21754;SDS011;11039;50.028;19.938;2023-06-14T13:22:59;5.43;;;4.68;;
21754;SDS011;11039;50.028;19.938;2023-06-14T13:25:27;5.60;;;4.93;;
21754;SDS011;11039;50.028;19.938;2023-06-14T13:27:53;4.82;;;4.38;;
21754;SDS011;11039;50.028;19.938;2023-06-14T13:30:19;5.53;;;4.35;;
21754;SDS011;11039;50.028;19.938;2023-06-14T13:32:45;5.00;;;4.53;;
21754;SDS011;11039;50.028;19.938;2023-06-14T13:35:11;4.28;;;3.88;;
21754;SDS011;11039;50.028;19.938;2023-06-14T13:37:37;4.78;;;4.28;;
21754;SDS011;11039;50.028;19.938;2023-06-14T13:40:03;6.20;;;4.25;;
21754;SDS011;11039;50.028;19.938;2023-06-14T13:42:29;5.35;;;4.22;;
21754;SDS011;11039;50.028;19.938;2023-06-14T13:44:58;4.70;;;4.15;;
21754;SDS011;11039;50.028;19.938;2023-06-14T13:47:24;5.00;;;4.32;;
21754;SDS011;11039;50.028;19.938;2023-06-14T13:49:50;4.45;;;4.05;;
21754;SDS011;11039;50.028;19.938;2023-06-14T13:54:36;7.50;;;4.32;;
21754;SDS011;11039;50.028;19.938;2023-06-14T13:57:03;5.63;;;4.30;;
21754;SDS011;11039;50.028;19.938;2023-06-14T13:59:29;4.45;;;4.05;;
21754;SDS011;11039;50.028;19.938;2023-06-14T14:01:55;5.50;;;4.30;;
21754;SDS011;11039;50.028;19.938;2023-06-14T14:04:21;7.75;;;4.10;;
21754;SDS011;11039;50.028;19.938;2023-06-14T14:06:47;6.68;;;4.40;;
21754;SDS011;11039;50.028;19.938;2023-06-14T14:09:13;5.68;;;4.05;;
21754;SDS011;11039;50.028;19.938;2023-06-14T14:11:39;4.68;;;4.20;;
21754;SDS011;11039;50.028;19.938;2023-06-14T14:14:07;5.13;;;4.30;;
21754;SDS011;11039;50.028;19.938;2023-06-14T14:16:33;5.07;;;4.38;;
21754;SDS011;11039;50.028;19.938;2023-06-14T14:19:00;7.13;;;4.35;;
21754;SDS011;11039;50.028;19.938;2023-06-14T14:21:27;5.85;;;4.38;;
21754;SDS011;11039;50.028;19.938;2023-06-14T14:23:53;9.43;;;4.50;;
21754;SDS011;11039;50.028;19.938;2023-06-14T14:26:19;6.72;;;4.63;;
21754;SDS011;11039;50.028;19.938;2023-06-14T14:28:45;8.45;;;4.82;;
21754;SDS011;11039;50.028;19.938;2023-06-14T14:33:29;5.82;;;4.63;;
21754;SDS011;11039;50.028;19.938;2023-06-14T14:35:55;5.68;;;4.50;;
21754;SDS011;11039;50.028;19.938;2023-06-14T14:38:21;6.72;;;5.15;;
21754;SDS011;11039;50.028;19.938;2023-06-14T14:40:48;6.20;;;5.13;;
21754;SDS011;11039;50.028;19.938;2023-06-14T14:43:14;7.25;;;5.00;;
21754;SDS011;11039;50.028;19.938;2023-06-14T14:45:40;5.72;;;4.63;;
21754;SDS011;11039;50.028;19.938;2023-06-14T14:48:06;5.70;;;4.50;;
21754;SDS011;11039;50.028;19.938;2023-06-14T14:50:32;4.70;;;4.18;;
21754;SDS011;11039;50.028;19.938;2023-06-14T14:52:58;5.30;;;4.30;;
21754;SDS011;11039;50.028;19.938;2023-06-14T14:57:45;5.20;;;4.22;;
21754;SDS011;11039;50.028;19.938;2023-06-14T15:00:11;6.78;;;4.82;;
21754;SDS011;11039;50.028;19.938;2023-06-14T15:02:37;6.45;;;4.53;;
21754;SDS011;11039;50.028;19.938;2023-06-14T15:05:03;5.72;;;4.65;;
21754;SDS011;11039;50.028;19.938;2023-06-14T15:07:30;7.20;;;4.80;;
21754;SDS011;11039;50.028;19.938;2023-06-14T15:09:56;6.70;;;4.60;;
21754;SDS011;11039;50.028;19.938;2023-06-14T15:12:23;4.93;;;4.45;;
21754;SDS011;11039;50.028;19.938;2023-06-14T15:14:52;5.93;;;4.78;;
21754;SDS011;11039;50.028;19.938;2023-06-14T15:17:19;5.47;;;4.45;;
21754;SDS011;11039;50.028;19.938;2023-06-14T15:19:45;5.15;;;4.53;;
21754;SDS011;11039;50.028;19.938;2023-06-14T15:22:12;8.00;;;4.95;;
21754;SDS011;11039;50.028;19.938;2023-06-14T15:24:39;4.72;;;4.25;;
21754;SDS011;11039;50.028;19.938;2023-06-14T15:27:06;5.50;;;4.40;;
21754;SDS011;11039;50.028;19.938;2023-06-14T15:29:32;5.65;;;4.75;;